Mesa Verde National Park, Colorado
Current Conditions -  °F | °C
As of 1:53 PM on Tuesday 25 Nov 2014 (Local Time) from KCEZ Reporting Station
Clear Clear  
Wind Chill:   Ceiling: Unl
Heat Index:   Visibility: 10mi
Dew Point: -14°   Wind: 8mph
Humidity: 23%   Direction: 300°WNW
Pressure: 30.33"   Gusts: NA
Location:  37.1877°N, 108.492°W
Report Text: KCEZ 252053Z AUTO 30007KT 10SM CLR 06/M14 A3033 RMK AO2 SLP286 T00561144 58018
Loading
Personal Weather Stations






























Interactive Weather Map New forecast layout! Learn more

10-Day Weather Forecast

Advertisements
Track Severe Weather on mobile